createdAt,value
2022-11-24T00:01:23.099Z,1.98
2022-11-24T00:03:36.703Z,1.98
2022-11-24T00:05:48.791Z,1.99
2022-11-24T00:08:02.402Z,2.01
2022-11-24T00:10:15.447Z,2.02
2022-11-24T00:12:28.528Z,2.02
2022-11-24T00:14:41.133Z,1.99
2022-11-24T00:16:52.734Z,2.02
2022-11-24T00:19:04.801Z,2.02
2022-11-24T00:21:16.871Z,2.02
2022-11-24T00:23:28.955Z,2.04
2022-11-24T00:25:41.029Z,2.06
2022-11-24T00:27:54.107Z,2.04
2022-11-24T00:30:06.213Z,2.04
2022-11-24T00:32:19.756Z,2.06
2022-11-24T00:34:32.105Z,2.04
2022-11-24T00:36:43.941Z,2.01
2022-11-24T00:38:57.527Z,2.04
2022-11-24T00:41:09.621Z,2.04
2022-11-24T00:43:21.690Z,2.04
2022-11-24T00:45:33.846Z,2.06
2022-11-24T00:47:47.370Z,2.08
2022-11-24T00:49:59.446Z,2.06
2022-11-24T00:52:11.565Z,2.04
2022-11-24T00:54:23.626Z,2.06
2022-11-24T00:56:35.699Z,2.06
2022-11-24T00:58:47.800Z,2.04
2022-11-24T01:00:59.921Z,2.01
2022-11-24T01:03:12.004Z,2.01
2022-11-24T01:05:25.065Z,2.01
2022-11-24T01:07:37.214Z,1.99
2022-11-24T01:09:49.243Z,1.99
2022-11-24T01:12:01.315Z,1.99
2022-11-24T01:14:13.434Z,1.97
2022-11-24T01:16:25.564Z,1.98
2022-11-24T01:18:37.578Z,1.98
2022-11-24T01:20:50.648Z,1.97
2022-11-24T01:23:02.735Z,1.97
2022-11-24T01:25:14.819Z,1.98
2022-11-24T01:27:26.895Z,1.98
2022-11-24T01:29:38.986Z,1.97
2022-11-24T01:31:52.052Z,1.98
2022-11-24T01:34:04.145Z,1.99
2022-11-24T01:36:17.239Z,1.98
2022-11-24T01:38:29.302Z,1.99
2022-11-24T01:40:41.379Z,1.98
2022-11-24T01:42:53.479Z,1.97
2022-11-24T01:45:07.091Z,1.97
2022-11-24T01:47:20.687Z,1.91
2022-11-24T01:49:34.254Z,1.93
2022-11-24T01:51:46.339Z,1.91
2022-11-24T01:54:00.002Z,1.90
2022-11-24T01:56:12.107Z,1.89
2022-11-24T01:58:25.693Z,1.85
2022-11-24T02:00:39.263Z,1.83
2022-11-24T02:02:52.945Z,1.82
2022-11-24T02:05:04.968Z,1.80
2022-11-24T02:07:18.122Z,1.82
2022-11-24T02:09:31.638Z,1.79
2022-11-24T02:11:43.703Z,1.80
2022-11-24T02:13:57.265Z,1.78
2022-11-24T02:16:10.891Z,1.76
2022-11-24T02:18:22.941Z,1.72
2022-11-24T02:20:35.031Z,1.73
2022-11-24T02:22:47.114Z,1.72
2022-11-24T02:25:01.208Z,1.71
2022-11-24T02:27:13.275Z,1.65
2022-11-24T02:29:28.217Z,1.62
2022-11-24T02:31:40.486Z,1.60
2022-11-24T02:33:52.546Z,1.60
2022-11-24T02:36:04.631Z,1.58
2022-11-24T02:38:16.734Z,1.58
2022-11-24T02:40:31.308Z,1.58
2022-11-24T02:42:42.450Z,1.55
2022-11-24T02:44:55.990Z,1.55
2022-11-24T02:47:08.080Z,1.51
2022-11-24T02:49:20.155Z,1.51
2022-11-24T02:51:32.247Z,1.46
2022-11-24T02:53:44.407Z,1.44
2022-11-24T02:55:56.402Z,1.42
2022-11-24T02:58:08.481Z,1.43
2022-11-24T03:00:20.591Z,1.43
2022-11-24T03:02:32.707Z,1.40
2022-11-24T03:04:44.782Z,1.39
2022-11-24T03:06:58.349Z,1.39
2022-11-24T03:09:10.438Z,1.39
2022-11-24T03:11:22.524Z,1.39
2022-11-24T03:13:34.588Z,1.39
2022-11-24T03:15:46.761Z,1.36
2022-11-24T03:18:00.266Z,1.37
2022-11-24T03:20:12.364Z,1.36
2022-11-24T03:22:25.439Z,1.34
2022-11-24T03:24:37.527Z,1.33
2022-11-24T03:26:49.623Z,1.32
2022-11-24T03:29:01.678Z,1.29
2022-11-24T03:31:13.852Z,1.28
2022-11-24T03:33:28.319Z,1.28
2022-11-24T03:35:40.410Z,1.26
2022-11-24T03:37:53.504Z,1.26
2022-11-24T03:40:05.553Z,1.25
2022-11-24T03:42:19.135Z,1.26
2022-11-24T03:44:31.499Z,1.24
2022-11-24T03:46:43.362Z,1.24
2022-11-24T03:48:56.903Z,1.24
2022-11-24T03:51:09.971Z,1.25
2022-11-24T03:53:22.057Z,1.24
2022-11-24T03:55:34.140Z,1.22
2022-11-24T03:57:48.713Z,1.22
2022-11-24T04:00:00.823Z,1.21
2022-11-24T04:02:12.946Z,1.21
2022-11-24T04:04:24.978Z,1.19
2022-11-24T04:06:37.075Z,1.19
2022-11-24T04:08:49.248Z,1.21
2022-11-24T04:11:02.790Z,1.21
2022-11-24T04:13:14.856Z,1.19
2022-11-24T04:15:26.922Z,1.22
2022-11-24T04:17:40.540Z,1.19
2022-11-24T04:19:54.110Z,1.19
2022-11-24T04:22:06.211Z,1.19
2022-11-24T04:24:18.282Z,1.18
2022-11-24T04:26:30.368Z,1.16
2022-11-24T04:28:42.455Z,1.18
2022-11-24T04:30:54.561Z,1.18
2022-11-24T04:33:06.630Z,1.18
2022-11-24T04:35:19.694Z,1.18
2022-11-24T04:37:34.299Z,1.19
2022-11-24T04:39:47.883Z,1.16
2022-11-24T04:41:59.958Z,1.16
2022-11-24T04:42:59.928Z,1.12
2022-11-24T04:45:12.040Z,1.15
2022-11-24T04:47:25.666Z,1.14
2022-11-24T04:49:37.767Z,1.14
2022-11-24T04:51:52.330Z,1.12
2022-11-24T04:54:15.340Z,1.12
2022-11-24T04:56:28.925Z,1.10
2022-11-24T04:58:42.495Z,1.10
2022-11-24T05:00:54.614Z,1.12
2022-11-24T05:03:06.684Z,1.08
2022-11-24T05:05:18.759Z,1.08
2022-11-24T05:07:34.355Z,1.06
2022-11-24T05:09:58.842Z,1.03
2022-11-24T05:11:58.518Z,1.01
2022-11-24T05:14:26.152Z,1.01
2022-11-24T05:16:22.745Z,1.01
2022-11-24T05:18:34.749Z,1.00
2022-11-24T05:20:46.839Z,1.01
2022-11-24T05:22:59.956Z,1.04
2022-11-24T05:25:12.915Z,1.01
2022-11-24T05:27:24.989Z,1.00
2022-11-24T05:29:37.044Z,1.00
2022-11-24T05:31:49.216Z,0.98
2022-11-24T05:34:01.246Z,0.98
2022-11-24T05:36:13.446Z,0.97
2022-11-24T05:38:25.525Z,0.94
2022-11-24T05:40:39.089Z,0.96
2022-11-24T05:42:51.227Z,0.96
2022-11-24T05:45:03.316Z,0.94
2022-11-24T05:47:15.377Z,0.97
2022-11-24T05:49:27.459Z,0.97
2022-11-24T05:51:39.555Z,0.98
2022-11-24T05:53:53.114Z,0.97
2022-11-24T05:56:05.265Z,0.97
2022-11-24T05:58:17.294Z,0.98
2022-11-24T06:00:29.421Z,0.98
2022-11-24T06:02:41.713Z,1.00
2022-11-24T06:04:54.564Z,0.98
2022-11-24T06:07:06.711Z,0.98
2022-11-24T06:09:19.045Z,1.00
2022-11-24T06:11:31.126Z,1.00
2022-11-24T06:13:44.786Z,1.01
2022-11-24T06:15:56.870Z,1.03
2022-11-24T06:18:08.921Z,1.00
2022-11-24T06:20:22.482Z,1.01
2022-11-24T06:22:36.067Z,0.97
2022-11-24T06:24:49.676Z,1.00
2022-11-24T06:27:01.750Z,0.97
2022-11-24T06:29:13.874Z,0.98
2022-11-24T06:31:27.483Z,0.98
2022-11-24T06:33:41.026Z,0.98
2022-11-24T06:35:53.119Z,0.98
2022-11-24T06:38:05.193Z,0.97
2022-11-24T06:40:18.803Z,0.97
2022-11-24T06:42:30.865Z,0.98
2022-11-24T06:44:42.960Z,1.01
2022-11-24T06:46:55.051Z,1.03
2022-11-24T06:49:07.126Z,1.08
2022-11-24T06:51:22.712Z,1.14
2022-11-24T06:53:35.778Z,1.16
2022-11-24T06:55:50.361Z,1.18
2022-11-24T06:58:03.958Z,1.21
2022-11-24T07:00:16.040Z,1.21
2022-11-24T07:02:28.157Z,1.19
2022-11-24T07:04:41.711Z,1.18
2022-11-24T07:06:55.313Z,1.19
2022-11-24T07:09:08.880Z,1.21
2022-11-24T07:11:22.478Z,1.22
2022-11-24T07:13:34.605Z,1.25
2022-11-24T07:15:48.141Z,1.25
2022-11-24T07:18:00.238Z,1.25
2022-11-24T07:20:12.322Z,1.28
2022-11-24T07:22:24.401Z,1.26
2022-11-24T07:24:38.021Z,1.28
2022-11-24T07:26:52.593Z,1.32
2022-11-24T07:29:05.172Z,1.34
2022-11-24T07:31:18.861Z,1.37
2022-11-24T07:33:32.354Z,1.40
2022-11-24T07:35:44.449Z,1.43
2022-11-24T07:37:58.008Z,1.47
2022-11-24T07:40:11.602Z,1.52
2022-11-24T07:42:27.235Z,1.57
2022-11-24T07:44:41.820Z,1.60
2022-11-24T07:46:54.927Z,1.68
2022-11-24T07:49:08.487Z,1.69
2022-11-24T07:51:20.597Z,1.69
2022-11-24T07:53:34.199Z,1.73
2022-11-24T07:55:46.312Z,1.80
2022-11-24T07:57:59.245Z,1.83
2022-11-24T08:00:10.481Z,1.90
2022-11-24T08:02:22.562Z,1.97
2022-11-24T08:04:36.371Z,2.06
2022-11-24T08:06:50.732Z,2.12
2022-11-24T08:09:03.858Z,2.15
2022-11-24T08:11:17.433Z,2.17
2022-11-24T08:13:33.014Z,2.17
2022-11-24T08:15:46.615Z,2.16
2022-11-24T08:18:02.248Z,2.13
2022-11-24T08:20:15.835Z,2.17
2022-11-24T08:22:29.415Z,2.19
2022-11-24T08:24:41.486Z,2.28
2022-11-24T08:26:55.091Z,2.31
2022-11-24T08:29:10.684Z,2.13
2022-11-24T08:31:23.829Z,2.06
2022-11-24T08:33:37.336Z,2.13
2022-11-24T08:35:50.925Z,2.15
2022-11-24T08:38:04.983Z,2.30
2022-11-24T08:40:16.616Z,2.45
2022-11-24T08:42:30.258Z,2.53
2022-11-24T08:44:43.809Z,2.59
2022-11-24T08:46:55.899Z,2.64
2022-11-24T08:49:11.476Z,2.64
2022-11-24T08:51:27.125Z,2.64
2022-11-24T08:53:39.179Z,2.69
2022-11-24T08:55:54.730Z,2.70
2022-11-24T08:58:08.342Z,2.73
2022-11-24T09:00:20.447Z,2.77
2022-11-24T09:02:34.013Z,2.87
2022-11-24T09:04:47.722Z,2.92
2022-11-24T09:07:01.204Z,3.03
2022-11-24T09:09:14.801Z,3.10
2022-11-24T09:11:28.430Z,3.18
2022-11-24T09:13:40.497Z,3.23
2022-11-24T09:15:54.153Z,3.21
2022-11-24T09:18:07.659Z,3.21
2022-11-24T09:20:21.303Z,3.24
2022-11-24T09:22:34.881Z,3.21
2022-11-24T09:24:48.465Z,3.05
2022-11-24T09:27:04.091Z,3.02
2022-11-24T09:29:17.674Z,3.06
2022-11-24T09:31:33.929Z,3.15
2022-11-24T09:33:46.710Z,3.27
2022-11-24T09:35:58.910Z,3.28
2022-11-24T09:38:14.545Z,3.33
2022-11-24T09:40:36.125Z,3.36
2022-11-24T09:42:53.713Z,3.34
2022-11-24T09:45:05.301Z,3.33
2022-11-24T09:47:18.980Z,3.33
2022-11-24T09:49:34.949Z,3.33
2022-11-24T09:51:46.584Z,3.36
2022-11-24T09:53:58.664Z,3.46
2022-11-24T09:56:13.101Z,3.54
2022-11-24T09:58:25.863Z,3.67
2022-11-24T10:00:38.941Z,3.82
2022-11-24T10:02:52.013Z,3.96
2022-11-24T10:05:04.194Z,4.07
2022-11-24T10:07:19.128Z,4.10
2022-11-24T10:09:37.355Z,4.12
2022-11-24T10:11:50.334Z,4.01
2022-11-24T10:14:03.888Z,3.97
2022-11-24T10:16:21.986Z,3.94
2022-11-24T10:18:35.045Z,3.97
2022-11-24T10:20:56.211Z,4.08
2022-11-24T10:23:04.314Z,4.06
2022-11-24T10:25:17.848Z,4.00
2022-11-24T10:27:31.410Z,4.06
2022-11-24T10:29:47.000Z,4.15
2022-11-24T10:31:59.090Z,4.25
2022-11-24T10:34:12.750Z,4.29
2022-11-24T10:36:24.834Z,4.46
2022-11-24T10:38:38.390Z,4.52
2022-11-24T10:40:59.304Z,4.51
2022-11-24T10:43:07.543Z,4.54
2022-11-24T10:45:20.670Z,4.51
2022-11-24T10:47:32.744Z,4.46
2022-11-24T10:49:46.327Z,4.32
2022-11-24T10:52:01.916Z,4.19
2022-11-24T10:54:17.514Z,4.22
2022-11-24T10:56:35.668Z,4.25
2022-11-24T10:58:51.182Z,4.28
2022-11-24T11:01:04.788Z,4.22
2022-11-24T11:03:22.840Z,4.22
2022-11-24T11:05:40.925Z,4.26
2022-11-24T11:08:00.956Z,4.28
2022-11-24T11:10:09.615Z,4.39
2022-11-24T11:14:36.300Z,4.47
2022-11-24T11:16:51.896Z,4.50
2022-11-24T11:19:26.090Z,4.52
2022-11-24T11:20:08.949Z,4.51
2022-11-24T11:22:23.094Z,4.47
2022-11-24T11:24:36.725Z,4.52
2022-11-24T11:26:52.268Z,4.43
2022-11-24T11:34:26.675Z,4.42
2022-11-24T11:36:34.489Z,4.42
2022-11-24T11:38:50.096Z,4.42
2022-11-24T11:41:05.686Z,4.42
2022-11-24T11:43:18.738Z,4.50
2022-11-24T11:45:32.356Z,4.55
2022-11-24T11:47:46.889Z,4.62
2022-11-24T11:50:02.505Z,4.67
2022-11-24T11:52:18.085Z,4.72
2022-11-24T11:54:36.412Z,4.72
2022-11-24T11:56:50.742Z,4.61
2022-11-24T11:59:06.356Z,4.52
2022-11-24T12:01:21.912Z,4.59
2022-11-24T12:03:37.742Z,4.64
2022-11-24T12:05:51.116Z,4.65
2022-11-24T12:08:10.789Z,4.67
2022-11-24T12:10:21.305Z,4.72
2022-11-24T12:12:33.385Z,4.75
2022-11-24T12:14:48.997Z,4.84
2022-11-24T12:17:04.605Z,4.92
2022-11-24T12:19:20.232Z,4.89
2022-11-24T12:21:34.797Z,4.95
2022-11-24T12:23:48.437Z,4.95
2022-11-24T12:26:03.002Z,4.94
2022-11-24T12:28:18.593Z,4.92
2022-11-24T12:30:34.174Z,4.88
2022-11-24T12:32:56.980Z,4.86
2022-11-24T12:35:06.673Z,4.86
2022-11-24T12:37:20.781Z,4.88
2022-11-24T12:39:36.837Z,4.86
2022-11-24T12:41:49.941Z,4.86
2022-11-24T12:44:03.038Z,4.88
2022-11-24T12:46:18.731Z,4.83
2022-11-24T12:48:35.235Z,4.83
2022-11-24T12:50:50.804Z,4.80
2022-11-24T12:53:06.355Z,4.77
2022-11-24T12:55:19.942Z,4.76
2022-11-24T12:57:36.562Z,4.79
2022-11-24T12:59:52.442Z,4.79
2022-11-24T13:02:07.172Z,4.76
2022-11-24T13:04:20.588Z,4.80
2022-11-24T13:06:32.673Z,4.84
2022-11-24T13:08:44.853Z,4.84
2022-11-24T13:10:57.971Z,4.92
2022-11-24T13:13:12.413Z,4.95
2022-11-24T13:15:45.250Z,5.01
2022-11-24T13:17:05.819Z,5.02
2022-11-24T13:18:39.632Z,5.10
2022-11-24T13:20:53.264Z,5.17
2022-11-24T13:23:05.259Z,5.22
2022-11-24T13:25:18.879Z,5.25
2022-11-24T13:27:32.474Z,5.31
2022-11-24T13:29:44.568Z,5.34
2022-11-24T13:31:58.211Z,5.37
2022-11-24T13:34:11.727Z,5.38
2022-11-24T13:36:25.320Z,5.43
2022-11-24T13:38:37.431Z,5.46
2022-11-24T13:41:13.315Z,5.46
2022-11-24T13:41:51.460Z,5.43
2022-11-24T13:44:04.076Z,5.34
2022-11-24T13:46:17.201Z,5.34
2022-11-24T13:48:29.218Z,5.35
2022-11-24T13:50:41.298Z,5.32
2022-11-24T13:52:53.408Z,5.34
2022-11-24T13:55:11.342Z,5.31
2022-11-24T13:57:19.081Z,5.34
2022-11-24T13:59:31.162Z,5.31
2022-11-24T14:01:44.851Z,5.27
2022-11-24T14:04:28.786Z,5.25
2022-11-24T14:06:09.401Z,5.22
2022-11-24T14:08:22.948Z,5.20
2022-11-24T14:10:35.040Z,5.19
2022-11-24T14:12:47.116Z,5.19
2022-11-24T14:14:59.207Z,5.20
2022-11-24T14:17:12.802Z,5.20
2022-11-24T14:19:27.892Z,5.20
2022-11-24T14:21:36.961Z,5.22
2022-11-24T14:23:52.558Z,5.19
2022-11-24T14:26:04.638Z,5.17
2022-11-24T14:28:16.837Z,5.14
2022-11-24T14:30:28.845Z,5.14
2022-11-24T14:32:40.930Z,5.12
2022-11-24T14:34:53.105Z,5.13
2022-11-24T14:37:06.211Z,5.12
2022-11-24T14:39:19.785Z,5.14
2022-11-24T14:41:32.829Z,5.13
2022-11-24T14:43:44.916Z,5.12
2022-11-24T14:46:00.526Z,5.12
2022-11-24T14:48:14.116Z,5.09
2022-11-24T14:50:26.330Z,5.04
2022-11-24T14:52:39.787Z,5.01
2022-11-24T14:54:53.381Z,5.01
2022-11-24T14:57:05.451Z,4.96
2022-11-24T14:59:19.027Z,4.96
2022-11-24T15:01:34.843Z,4.94
2022-11-24T15:03:47.887Z,4.91
2022-11-24T15:06:02.326Z,4.88
2022-11-24T15:08:15.918Z,4.84
2022-11-24T15:10:33.597Z,4.80
2022-11-24T15:12:43.111Z,4.80
2022-11-24T15:14:55.209Z,4.80
2022-11-24T15:17:07.318Z,4.80
2022-11-24T15:19:20.887Z,4.79
2022-11-24T15:21:33.980Z,4.79
2022-11-24T15:23:46.315Z,4.79
2022-11-24T15:25:58.162Z,4.79
2022-11-24T15:28:11.782Z,4.79
2022-11-24T15:30:23.883Z,4.79
2022-11-24T15:32:37.453Z,4.80
2022-11-24T15:34:51.071Z,4.80
2022-11-24T15:37:06.644Z,4.79
2022-11-24T15:39:24.725Z,4.77
2022-11-24T15:41:36.804Z,4.79
2022-11-24T15:43:49.892Z,4.77
2022-11-24T15:46:01.978Z,4.76
2022-11-24T15:48:17.969Z,4.75
2022-11-24T15:50:27.644Z,4.75
2022-11-24T15:52:39.740Z,4.73
2022-11-24T15:54:51.879Z,4.70
2022-11-24T15:57:05.486Z,4.72
2022-11-24T15:59:20.741Z,4.70
2022-11-24T16:01:29.721Z,4.69
2022-11-24T16:03:47.301Z,4.64
2022-11-24T16:06:00.851Z,4.61
2022-11-24T16:08:12.987Z,4.61
2022-11-24T16:10:25.023Z,4.62
2022-11-24T16:12:37.096Z,4.62
2022-11-24T16:14:49.174Z,4.65
2022-11-24T16:17:01.282Z,4.70
2022-11-24T16:19:13.394Z,4.75
2022-11-24T16:21:26.944Z,4.76
2022-11-24T16:23:40.033Z,4.76
2022-11-24T16:25:53.620Z,4.75
2022-11-24T16:28:07.203Z,4.76
2022-11-24T16:30:20.825Z,4.75
2022-11-24T16:32:33.882Z,4.75
2022-11-24T16:34:47.473Z,4.73
2022-11-24T16:37:01.050Z,4.73
2022-11-24T16:39:13.161Z,4.76
2022-11-24T16:41:28.765Z,4.76
2022-11-24T16:43:40.826Z,4.70
2022-11-24T16:45:52.946Z,4.64
2022-11-24T16:48:05.014Z,4.58
2022-11-24T16:50:18.107Z,4.54
2022-11-24T16:52:30.207Z,4.54
2022-11-24T16:54:42.282Z,4.54
2022-11-24T16:56:54.394Z,4.52
2022-11-24T16:59:06.460Z,4.50
2022-11-24T17:01:20.139Z,4.47
2022-11-24T17:03:33.649Z,4.44
2022-11-24T17:05:45.709Z,4.40
2022-11-24T17:07:58.878Z,4.39
2022-11-24T17:10:10.881Z,4.36
2022-11-24T17:12:24.548Z,4.36
2022-11-24T17:14:37.760Z,4.36
2022-11-24T17:16:49.713Z,4.43
2022-11-24T17:19:03.730Z,4.47
2022-11-24T17:21:15.318Z,4.46
2022-11-24T17:23:28.405Z,4.39
2022-11-24T17:25:44.009Z,4.34
2022-11-24T17:27:56.070Z,4.40
2022-11-24T17:30:09.668Z,4.43
2022-11-24T17:32:23.246Z,4.43
2022-11-24T17:34:36.395Z,4.34
2022-11-24T17:36:48.952Z,4.22
2022-11-24T17:39:01.013Z,4.08
2022-11-24T17:41:13.101Z,4.01
2022-11-24T17:43:25.198Z,3.94
2022-11-24T17:45:37.393Z,3.90
2022-11-24T17:47:49.395Z,3.88
2022-11-24T17:50:01.459Z,3.85
2022-11-24T17:52:13.538Z,3.83
2022-11-24T17:54:45.831Z,3.79
2022-11-24T17:55:26.591Z,3.75
2022-11-24T17:57:39.185Z,3.68
2022-11-24T17:59:52.785Z,3.64
2022-11-24T18:02:04.923Z,3.60
2022-11-24T18:04:17.001Z,3.57
2022-11-24T18:06:29.150Z,3.49
2022-11-24T18:08:42.665Z,3.39
2022-11-24T18:10:56.246Z,3.23
2022-11-24T18:13:08.328Z,3.15
2022-11-24T18:15:20.423Z,3.05
2022-11-24T18:17:33.973Z,2.91
2022-11-24T18:19:47.063Z,2.85
2022-11-24T18:21:59.220Z,2.82
2022-11-24T18:24:11.255Z,2.74
2022-11-24T18:26:23.355Z,2.71
2022-11-24T18:28:35.477Z,2.66
2022-11-24T18:30:49.043Z,2.53
2022-11-24T18:33:01.141Z,2.48
2022-11-24T18:35:14.714Z,2.37
2022-11-24T18:37:26.830Z,2.34
2022-11-24T18:39:41.380Z,2.35
2022-11-24T18:41:53.524Z,2.35
2022-11-24T18:44:09.105Z,2.26
2022-11-24T18:46:22.740Z,2.09
2022-11-24T18:48:35.817Z,1.98
2022-11-24T18:50:48.841Z,1.89
2022-11-24T18:53:01.932Z,1.82
2022-11-24T18:55:15.049Z,1.79
2022-11-24T18:57:30.614Z,1.78
2022-11-24T18:59:46.234Z,1.73
2022-11-24T19:02:00.126Z,1.68
2022-11-24T19:04:12.863Z,1.62
2022-11-24T19:06:30.620Z,1.58
2022-11-24T19:08:38.570Z,1.52
2022-11-24T19:10:54.205Z,1.37
2022-11-24T19:13:09.740Z,1.37
2022-11-24T19:15:25.330Z,1.44
2022-11-24T19:17:40.903Z,1.43
2022-11-24T19:19:53.976Z,1.34
2022-11-24T19:22:12.093Z,1.21
2022-11-24T19:24:30.146Z,1.08
2022-11-24T19:26:43.748Z,1.08
2022-11-24T19:28:55.848Z,1.01
2022-11-24T19:31:11.411Z,0.89
2022-11-24T19:33:25.029Z,0.83
2022-11-24T19:35:38.586Z,0.78
2022-11-24T19:37:55.157Z,0.76
2022-11-24T19:40:08.107Z,0.75
2022-11-24T19:42:22.840Z,0.75
2022-11-24T19:44:36.648Z,0.67
2022-11-24T19:46:50.025Z,0.53
2022-11-24T19:49:02.144Z,0.49
2022-11-24T19:51:15.710Z,0.52
2022-11-24T19:53:29.320Z,0.51
2022-11-24T19:55:43.225Z,0.48
2022-11-24T19:57:56.785Z,0.45
2022-11-24T20:00:12.350Z,0.41
2022-11-24T20:02:27.969Z,0.38
2022-11-24T20:04:40.060Z,0.31
2022-11-24T20:06:55.632Z,0.31
2022-11-24T20:09:12.326Z,0.27
2022-11-24T20:11:26.095Z,0.23
2022-11-24T20:13:39.666Z,0.20
2022-11-24T20:15:51.800Z,0.18
2022-11-24T20:18:07.921Z,0.12
2022-11-24T20:20:25.458Z,0.07
2022-11-24T20:22:39.130Z,0.02
2022-11-24T20:24:55.462Z,0.02
2022-11-24T20:27:08.210Z,0.05
2022-11-24T20:29:21.854Z,0.06
2022-11-24T20:31:34.977Z,0.07
2022-11-24T20:33:46.993Z,0.06
2022-11-24T20:36:00.140Z,0.06
2022-11-24T20:38:15.715Z,0.07
2022-11-24T20:40:30.185Z,0.13
2022-11-24T20:42:42.370Z,0.20
2022-11-24T20:44:57.952Z,0.23
2022-11-24T20:47:13.556Z,0.25
2022-11-24T20:49:25.645Z,0.28
2022-11-24T20:51:37.774Z,0.31
2022-11-24T20:53:50.913Z,0.33
2022-11-24T20:56:06.665Z,0.31
2022-11-24T20:58:19.999Z,0.25
2022-11-24T21:00:32.177Z,0.27
2022-11-24T21:02:45.853Z,0.31
2022-11-24T21:04:59.374Z,0.30
2022-11-24T21:07:12.055Z,0.31
2022-11-24T21:09:23.602Z,0.31
2022-11-24T21:11:37.167Z,0.33
2022-11-24T21:13:50.774Z,0.36
2022-11-24T21:16:03.908Z,0.34
2022-11-24T21:18:16.910Z,0.36
2022-11-24T21:20:29.007Z,0.39
2022-11-24T21:22:42.604Z,0.42
2022-11-24T21:24:56.214Z,0.46
2022-11-24T21:27:09.394Z,0.53
2022-11-24T21:29:24.818Z,0.61
2022-11-24T21:31:35.780Z,0.68
2022-11-24T21:33:47.265Z,0.80
2022-11-24T21:36:01.998Z,0.90
2022-11-24T21:38:18.073Z,1.00
2022-11-24T21:40:29.164Z,1.04
2022-11-24T21:42:42.331Z,1.18
2022-11-24T21:44:55.885Z,1.22
2022-11-24T21:47:09.129Z,1.26
2022-11-24T21:49:18.886Z,1.28
2022-11-24T21:51:31.302Z,1.34
2022-11-24T21:53:44.001Z,1.37
2022-11-24T21:55:56.144Z,1.42
2022-11-24T21:58:07.678Z,1.50
2022-11-24T22:00:20.280Z,1.51
2022-11-24T22:02:34.366Z,1.54
2022-11-24T22:04:47.679Z,1.57
2022-11-24T22:07:01.374Z,1.62
2022-11-24T22:09:18.032Z,1.64
2022-11-24T22:11:26.101Z,1.72
2022-11-24T22:13:38.328Z,1.76
2022-11-24T22:15:49.917Z,1.79
2022-11-24T22:18:02.137Z,1.85
2022-11-24T22:20:15.732Z,1.85
2022-11-24T22:22:29.349Z,1.89
2022-11-24T22:24:41.978Z,1.91
2022-11-24T22:26:54.059Z,1.91
2022-11-24T22:29:06.149Z,1.91
2022-11-24T22:31:19.825Z,1.91
2022-11-24T22:33:35.374Z,1.94
2022-11-24T22:35:47.474Z,1.97
2022-11-24T22:38:00.618Z,1.99
2022-11-24T22:40:16.035Z,2.01
2022-11-24T22:42:28.789Z,2.02
2022-11-24T22:44:42.555Z,2.04
2022-11-24T22:46:55.963Z,2.09
2022-11-24T22:49:12.560Z,2.12
2022-11-24T22:51:24.651Z,2.15
2022-11-24T22:53:38.294Z,2.19
2022-11-24T22:55:53.854Z,2.20
2022-11-24T22:58:09.437Z,2.26
2022-11-24T23:00:23.050Z,2.26
2022-11-24T23:02:35.214Z,2.28
2022-11-24T23:04:50.746Z,2.30
2022-11-24T23:07:02.783Z,2.33
2022-11-24T23:09:15.737Z,2.35
2022-11-24T23:11:32.739Z,2.37
2022-11-24T23:13:39.381Z,2.37
2022-11-24T23:15:53.048Z,2.38
2022-11-24T23:18:06.582Z,2.37
2022-11-24T23:20:18.664Z,2.40
2022-11-24T23:22:32.298Z,2.41
2022-11-24T23:24:45.826Z,2.41
2022-11-24T23:26:59.442Z,2.44
2022-11-24T23:29:13.570Z,2.45
2022-11-24T23:31:26.585Z,2.46
2022-11-24T23:33:40.165Z,2.48
2022-11-24T23:35:52.270Z,2.49
2022-11-24T23:38:07.896Z,2.49
2022-11-24T23:40:19.438Z,2.55
2022-11-24T23:42:32.993Z,2.55
2022-11-24T23:44:45.077Z,2.56
2022-11-24T23:46:57.168Z,2.56
2022-11-24T23:49:09.293Z,2.58
2022-11-24T23:51:21.343Z,2.58
2022-11-24T23:53:34.425Z,2.58
2022-11-24T23:55:48.028Z,2.59
2022-11-24T23:58:01.624Z,2.63
